Time;durP1;ratioP1;P1;durP2;ratioP2;P2;SDS_P1;SDS_P2;PMS_P1;PMS_P2;Temp;Humidity;BMP_temperature;BMP_pressure;BME280_temperature;BME280_humidity;BME280_pressure;Samples;Min_cycle;Max_cycle;Signal;HPM_P1;HPM_P2
2023/07/14 00:00:44;;;;;;;10.27;4.60;;;25.20;91.40;;;;;;5001778;28;20419;-95
2023/07/14 00:03:17;;;;;;;6.18;4.57;;;25.10;91.40;;;;;;5016598;28;20407;-96
2023/07/14 00:05:48;;;;;;;6.55;4.38;;;25.20;91.50;;;;;;4995721;28;20789;-95
2023/07/14 00:08:20;;;;;;;5.53;4.32;;;25.10;91.40;;;;;;4985439;28;20437;-95
2023/07/14 00:10:47;;;;;;;6.43;4.35;;;25.10;91.40;;;;;;4970154;28;20427;-96
2023/07/14 00:13:16;;;;;;;6.68;4.60;;;25.10;91.50;;;;;;4986816;28;20630;-95
2023/07/14 00:15:44;;;;;;;4.85;4.20;;;25.10;91.50;;;;;;5008443;28;20411;-94
2023/07/14 00:18:23;;;;;;;4.90;4.28;;;25.10;91.50;;;;;;5004425;28;20419;-94
2023/07/14 00:20:49;;;;;;;7.90;4.32;;;25.10;91.50;;;;;;4989325;28;20479;-94
2023/07/14 00:23:17;;;;;;;7.10;4.38;;;25.10;91.50;;;;;;4986028;28;20446;-95
2023/07/14 00:25:49;;;;;;;6.07;4.45;;;25.10;91.50;;;;;;4987954;28;20419;-93
2023/07/14 00:28:27;;;;;;;6.28;4.43;;;25.10;91.60;;;;;;4991846;28;20423;-94
2023/07/14 00:30:55;;;;;;;7.35;4.72;;;25.10;91.50;;;;;;4989859;28;20461;-94
2023/07/14 00:33:26;;;;;;;5.70;4.43;;;25.10;91.50;;;;;;4985971;28;20418;-96
2023/07/14 00:35:57;;;;;;;7.97;4.70;;;25.10;91.60;;;;;;4977364;28;20452;-95
2023/07/14 00:38:24;;;;;;;8.30;4.57;;;25.00;91.50;;;;;;4974208;28;20426;-96
2023/07/14 00:40:55;;;;;;;10.05;4.45;;;25.00;91.70;;;;;;4992712;28;20441;-95
2023/07/14 00:43:31;;;;;;;5.22;4.57;;;25.00;91.70;;;;;;5005723;28;20419;-94
2023/07/14 00:46:01;;;;;;;4.85;4.25;;;25.00;91.80;;;;;;5023699;28;20410;-94
2023/07/14 00:48:31;;;;;;;5.80;4.68;;;25.00;91.90;;;;;;4987494;28;20762;-96
2023/07/14 00:51:14;;;;;;;7.03;4.70;;;25.00;91.80;;;;;;4988764;28;20423;-96
2023/07/14 00:53:45;;;;;;;6.17;4.33;;;25.00;91.90;;;;;;4988635;28;20765;-96
2023/07/14 00:56:15;;;;;;;8.68;5.13;;;25.00;92.00;;;;;;4986572;28;20465;-95
2023/07/14 00:58:49;;;;;;;8.20;5.40;;;25.00;91.90;;;;;;5006231;28;20510;-95
2023/07/14 01:01:22;;;;;;;6.38;5.25;;;25.00;92.00;;;;;;5006686;28;20534;-95
2023/07/14 01:04:00;;;;;;;7.65;6.03;;;24.90;92.00;;;;;;5021604;28;20426;-95
2023/07/14 01:06:40;;;;;;;8.68;6.07;;;24.90;92.10;;;;;;4987908;28;20408;-94
2023/07/14 01:09:13;;;;;;;9.57;5.78;;;24.90;92.10;;;;;;5002378;28;20423;-94
2023/07/14 01:11:51;;;;;;;8.95;6.22;;;24.90;92.10;;;;;;4965594;28;20435;-93
2023/07/14 01:14:32;;;;;;;11.82;7.50;;;24.90;92.10;;;;;;4988171;28;20415;-95
2023/07/14 01:17:03;;;;;;;10.48;6.80;;;24.90;92.10;;;;;;4988204;28;20419;-94
2023/07/14 01:20:17;;;;;;;9.85;7.13;;;24.90;92.00;;;;;;4986310;28;20905;-95
2023/07/14 01:23:07;;;;;;;10.82;7.43;;;24.90;92.00;;;;;;4975327;28;20561;-93
2023/07/14 01:25:36;;;;;;;10.45;7.22;;;24.90;92.10;;;;;;4987162;28;20538;-95
2023/07/14 01:28:13;;;;;;;8.97;6.37;;;24.90;92.20;;;;;;4988759;28;20418;-94
2023/07/14 01:30:42;;;;;;;8.07;5.82;;;24.90;92.10;;;;;;5004689;28;20399;-94
2023/07/14 01:33:16;;;;;;;10.68;6.10;;;24.80;92.10;;;;;;4957563;28;20422;-95
2023/07/14 01:35:59;;;;;;;9.95;6.75;;;24.90;92.20;;;;;;5003321;28;20418;-94
2023/07/14 01:38:29;;;;;;;14.23;6.45;;;24.90;92.10;;;;;;4968903;28;20915;-95
2023/07/14 01:40:58;;;;;;;10.95;7.20;;;24.90;92.20;;;;;;4971623;28;20469;-92
2023/07/14 01:43:25;;;;;;;11.77;8.32;;;24.90;92.20;;;;;;5005457;28;20469;-95
2023/07/14 01:45:58;;;;;;;11.05;7.90;;;24.90;92.30;;;;;;4973471;28;20414;-93
2023/07/14 01:48:38;;;;;;;16.05;10.95;;;24.90;92.20;;;;;;4982419;28;20455;-96
2023/07/14 01:51:23;;;;;;;19.23;12.23;;;24.90;92.10;;;;;;4986633;28;20439;-96
2023/07/14 01:54:26;;;;;;;18.40;14.45;;;24.90;92.10;;;;;;5001162;28;20417;-94
2023/07/14 01:57:02;;;;;;;22.73;16.13;;;24.90;92.20;;;;;;4999632;28;20413;-95
2023/07/14 02:00:14;;;;;;;22.08;15.73;;;24.80;92.20;;;;;;4975830;28;20419;-94
2023/07/14 02:02:47;;;;;;;25.52;16.50;;;24.80;92.20;;;;;;4941710;28;20414;-94
2023/07/14 02:05:30;;;;;;;25.25;16.77;;;24.70;92.10;;;;;;4952631;28;20425;-95
2023/07/14 02:08:06;;;;;;;29.33;22.08;;;24.70;92.20;;;;;;4965456;28;20423;-94
2023/07/14 02:10:34;;;;;;;33.78;24.23;;;24.80;92.20;;;;;;4953635;28;20427;-96
2023/07/14 02:13:07;;;;;;;36.08;25.30;;;24.80;92.20;;;;;;4966092;28;20418;-94
2023/07/14 02:15:36;;;;;;;33.47;24.60;;;24.80;92.20;;;;;;4964722;28;20428;-95
2023/07/14 02:18:03;;;;;;;27.98;18.77;;;24.80;92.20;;;;;;4966256;28;20804;-94
2023/07/14 02:20:38;;;;;;;21.98;14.65;;;24.80;92.20;;;;;;4936992;28;20427;-94
2023/07/14 02:23:14;;;;;;;22.88;16.08;;;24.80;92.10;;;;;;4954550;28;20893;-95
2023/07/14 02:25:54;;;;;;;27.90;18.50;;;24.80;92.10;;;;;;4951962;28;21150;-94
2023/07/14 02:28:22;;;;;;;31.17;19.35;;;24.80;92.30;;;;;;4936273;28;20570;-95
2023/07/14 02:30:59;;;;;;;29.90;17.87;;;24.70;92.20;;;;;;4964237;28;20420;-96
2023/07/14 02:33:38;;;;;;;23.52;15.63;;;24.70;92.20;;;;;;4984952;28;20779;-94
2023/07/14 02:36:44;;;;;;;23.90;14.80;;;24.70;92.20;;;;;;5005418;28;20427;-94
2023/07/14 02:39:15;;;;;;;21.02;13.85;;;24.70;92.20;;;;;;5007557;28;20556;-95
2023/07/14 02:41:48;;;;;;;22.13;14.07;;;24.70;92.10;;;;;;5002235;28;20430;-94
2023/07/14 02:44:17;;;;;;;27.02;15.70;;;24.70;92.20;;;;;;5003461;28;20790;-94
2023/07/14 02:47:09;;;;;;;32.17;18.75;;;24.70;92.30;;;;;;4989347;28;20437;-96
2023/07/14 02:49:41;;;;;;;37.35;22.27;;;24.70;92.60;;;;;;5005664;28;20408;-95
2023/07/14 02:52:16;;;;;;;30.98;19.60;;;24.70;92.30;;;;;;5006622;28;20854;-94
2023/07/14 02:54:46;;;;;;;26.40;16.42;;;24.70;92.30;;;;;;4989385;28;20415;-95
2023/07/14 02:57:20;;;;;;;20.30;12.07;;;24.70;92.30;;;;;;4977188;28;20458;-96
2023/07/14 02:59:52;;;;;;;11.73;8.05;;;24.70;92.40;;;;;;4973746;28;20856;-94
2023/07/14 03:02:21;;;;;;;10.10;6.78;;;24.70;92.40;;;;;;5006968;28;20422;-96
2023/07/14 03:04:50;;;;;;;12.90;5.77;;;24.70;92.50;;;;;;4990813;28;20452;-94
2023/07/14 03:07:17;;;;;;;6.47;4.78;;;24.70;92.60;;;;;;4990178;28;21047;-93
2023/07/14 03:09:43;;;;;;;6.15;4.90;;;24.70;92.70;;;;;;5003590;28;20478;-93
2023/07/14 03:12:10;;;;;;;5.65;4.43;;;24.70;92.70;;;;;;5003840;28;20435;-93
2023/07/14 03:14:37;;;;;;;12.15;4.90;;;24.70;92.70;;;;;;4971081;28;20446;-94
2023/07/14 03:17:04;;;;;;;5.80;4.50;;;24.70;92.70;;;;;;4988986;28;20448;-95
2023/07/14 03:19:33;;;;;;;7.93;4.43;;;24.70;92.90;;;;;;4956032;28;20573;-96
2023/07/14 03:22:01;;;;;;;7.47;4.60;;;24.70;92.80;;;;;;4993299;28;20482;-96
2023/07/14 03:24:30;;;;;;;6.72;4.75;;;24.70;92.90;;;;;;5004840;28;20514;-96
2023/07/14 03:26:57;;;;;;;6.00;4.75;;;24.70;92.80;;;;;;5003790;28;20462;-96
2023/07/14 03:29:25;;;;;;;7.18;4.68;;;24.70;92.60;;;;;;4986861;28;20758;-96
2023/07/14 03:31:53;;;;;;;6.90;4.22;;;24.80;92.70;;;;;;4973432;28;20950;-96
2023/07/14 03:34:22;;;;;;;5.27;4.50;;;24.80;92.60;;;;;;4989263;28;20408;-96
2023/07/14 03:36:51;;;;;;;8.30;4.93;;;24.90;92.60;;;;;;4992482;28;20430;-96
2023/07/14 03:39:31;;;;;;;6.10;4.50;;;24.90;92.50;;;;;;4989307;28;20431;-96
2023/07/14 03:42:00;;;;;;;6.18;5.03;;;25.00;92.40;;;;;;5003201;28;20492;-96
2023/07/14 03:44:32;;;;;;;7.07;4.80;;;25.10;92.60;;;;;;5004860;28;20403;-96
2023/07/14 03:47:07;;;;;;;6.20;4.93;;;25.10;92.60;;;;;;4980887;28;20470;-96
2023/07/14 03:49:42;;;;;;;6.57;5.13;;;25.10;92.40;;;;;;4984368;28;20413;-95
2023/07/14 03:52:08;;;;;;;9.35;4.63;;;25.20;92.50;;;;;;4981421;28;20421;-96
2023/07/14 03:54:41;;;;;;;6.77;4.80;;;25.20;92.60;;;;;;4964664;28;20440;-95
2023/07/14 03:57:09;;;;;;;8.55;4.68;;;25.20;92.50;;;;;;4966199;28;20830;-96
2023/07/14 03:59:42;;;;;;;6.20;4.60;;;25.20;92.50;;;;;;4948541;28;20432;-95
2023/07/14 04:02:18;;;;;;;6.60;5.05;;;25.20;92.50;;;;;;4968370;28;20412;-96
2023/07/14 04:04:48;;;;;;;8.27;5.45;;;25.20;92.60;;;;;;4997607;28;20607;-95
2023/07/14 04:07:15;;;;;;;6.78;5.28;;;25.20;92.70;;;;;;4985314;28;20406;-95
2023/07/14 04:09:42;;;;;;;7.07;4.75;;;25.20;92.90;;;;;;4951355;28;20985;-93
2023/07/14 04:12:09;;;;;;;8.70;4.78;;;25.20;93.10;;;;;;4966788;28;20416;-94
2023/07/14 04:14:41;;;;;;;9.07;5.10;;;25.20;93.20;;;;;;4965396;28;20457;-94
2023/07/14 04:17:10;;;;;;;6.90;5.13;;;25.20;93.40;;;;;;4965490;28;20763;-95
2023/07/14 04:19:37;;;;;;;10.23;7.07;;;25.20;93.50;;;;;;4978924;28;20421;-94
2023/07/14 04:22:04;;;;;;;11.48;8.25;;;25.20;93.50;;;;;;4999447;28;20416;-94
2023/07/14 04:24:35;;;;;;;17.13;9.82;;;25.20;93.70;;;;;;4976646;28;20461;-95
2023/07/14 04:27:03;;;;;;;21.60;12.45;;;25.20;94.00;;;;;;5001383;28;21839;-94
2023/07/14 04:29:37;;;;;;;22.52;13.07;;;25.30;93.90;;;;;;4990514;28;20410;-96
2023/07/14 04:32:16;;;;;;;19.33;12.50;;;25.30;93.90;;;;;;4985813;28;20435;-96
2023/07/14 04:34:49;;;;;;;11.30;8.63;;;25.40;93.70;;;;;;4989463;28;20415;-95
2023/07/14 04:37:20;;;;;;;11.98;6.60;;;25.40;93.40;;;;;;5006369;28;21099;-96
2023/07/14 04:39:50;;;;;;;7.05;5.60;;;25.50;93.40;;;;;;4992001;28;20407;-95
2023/07/14 04:42:20;;;;;;;6.43;5.00;;;25.60;93.40;;;;;;5007512;28;20822;-96
2023/07/14 04:44:51;;;;;;;6.55;5.28;;;25.70;93.30;;;;;;5005981;28;20480;-96
2023/07/14 04:47:17;;;;;;;7.28;5.10;;;25.90;93.10;;;;;;4991185;28;21137;-95
2023/07/14 04:49:47;;;;;;;8.82;5.45;;;26.00;93.00;;;;;;5006661;28;20430;-96
2023/07/14 04:52:17;;;;;;;8.77;6.03;;;26.10;92.90;;;;;;4988915;28;20838;-93
2023/07/14 04:54:43;;;;;;;13.60;7.88;;;26.30;93.10;;;;;;4959065;28;20411;-96
2023/07/14 04:57:13;;;;;;;10.17;6.53;;;26.30;93.50;;;;;;4997599;28;20428;-95
2023/07/14 04:59:43;;;;;;;10.03;6.57;;;26.50;93.50;;;;;;4997896;28;20450;-96
2023/07/14 05:02:11;;;;;;;10.35;6.25;;;26.40;93.40;;;;;;4975390;28;20411;-93
2023/07/14 05:04:44;;;;;;;12.85;5.95;;;26.50;93.40;;;;;;4989591;28;20722;-94
2023/07/14 05:07:12;;;;;;;8.15;5.32;;;26.50;93.20;;;;;;4989001;28;20426;-94
2023/07/14 05:09:42;;;;;;;7.97;6.13;;;26.60;93.30;;;;;;4991872;28;20434;-94
2023/07/14 05:12:09;;;;;;;7.50;5.10;;;26.70;93.70;;;;;;4984872;28;20899;-94
2023/07/14 05:14:38;;;;;;;7.23;5.23;;;26.70;93.70;;;;;;4984942;28;20415;-94
2023/07/14 05:17:05;;;;;;;9.32;5.78;;;26.70;93.20;;;;;;5003237;28;20452;-95
2023/07/14 05:19:32;;;;;;;8.38;5.50;;;26.70;92.90;;;;;;4985885;28;20872;-94
2023/07/14 05:21:59;;;;;;;10.02;5.18;;;26.70;93.40;;;;;;4988440;28;20438;-94
2023/07/14 05:24:27;;;;;;;7.63;4.85;;;26.70;93.00;;;;;;5006100;28;20410;-94
2023/07/14 05:27:06;;;;;;;6.88;4.93;;;26.70;92.90;;;;;;4999097;28;20516;-95
2023/07/14 05:29:33;;;;;;;6.38;4.68;;;26.80;92.70;;;;;;4991727;28;20425;-94
2023/07/14 05:32:13;;;;;;;9.50;5.10;;;26.90;92.90;;;;;;4988163;28;20419;-96
2023/07/14 05:34:52;;;;;;;7.40;5.18;;;26.90;92.90;;;;;;4988971;28;20507;-94
2023/07/14 05:37:20;;;;;;;6.15;5.03;;;27.00;93.40;;;;;;5002800;28;20520;-95
2023/07/14 05:39:48;;;;;;;5.75;4.88;;;27.00;93.20;;;;;;5018339;28;20476;-94
2023/07/14 05:42:15;;;;;;;6.30;4.82;;;27.00;93.10;;;;;;4971704;28;20559;-94
2023/07/14 05:44:50;;;;;;;6.18;4.63;;;27.10;93.20;;;;;;5000709;28;20439;-96
2023/07/14 05:47:27;;;;;;;6.60;4.85;;;27.20;93.10;;;;;;5022860;28;21126;-95
2023/07/14 05:49:55;;;;;;;7.22;4.70;;;27.30;93.30;;;;;;4995066;28;20419;-95
2023/07/14 05:52:28;;;;;;;6.90;4.75;;;27.40;93.20;;;;;;4993905;28;20403;-95
2023/07/14 05:54:57;;;;;;;6.93;4.77;;;27.50;93.40;;;;;;4995017;28;20418;-95
2023/07/14 05:57:25;;;;;;;8.23;5.03;;;27.60;93.00;;;;;;5028550;28;20411;-93
2023/07/14 05:59:56;;;;;;;5.70;4.72;;;27.60;93.10;;;;;;4988837;28;20411;-95
2023/07/14 06:02:22;;;;;;;7.80;5.20;;;27.60;93.10;;;;;;5005844;28;20410;-95
2023/07/14 06:05:03;;;;;;;7.47;4.83;;;27.80;92.60;;;;;;5006947;28;20877;-93
2023/07/14 06:07:40;;;;;;;7.18;4.57;;;28.00;92.10;;;;;;5012222;28;20418;-96
2023/07/14 06:10:20;;;;;;;8.40;4.75;;;28.30;92.40;;;;;;4977552;28;20411;-91
2023/07/14 06:12:48;;;;;;;11.63;5.15;;;28.50;92.50;;;;;;5009401;28;20418;-96
2023/07/14 06:15:15;;;;;;;8.65;4.93;;;28.60;92.10;;;;;;4996583;28;20462;-92
2023/07/14 06:17:49;;;;;;;8.27;4.80;;;28.80;92.00;;;;;;4996534;28;20415;-92
2023/07/14 06:20:21;;;;;;;11.77;4.80;;;28.90;91.90;;;;;;4991483;28;20407;-91
2023/07/14 06:22:49;;;;;;;9.10;4.80;;;29.00;91.30;;;;;;5007879;28;20794;-94
2023/07/14 06:25:20;;;;;;;8.53;4.80;;;29.10;91.70;;;;;;4997223;28;20490;-96
2023/07/14 06:27:50;;;;;;;8.35;5.05;;;29.00;92.10;;;;;;4968697;28;20437;-96
2023/07/14 06:30:25;;;;;;;8.57;5.20;;;29.00;91.70;;;;;;4988756;28;20410;-92
2023/07/14 06:32:55;;;;;;;6.82;4.97;;;29.10;92.00;;;;;;4987195;28;20447;-96
2023/07/14 06:35:29;;;;;;;7.50;4.78;;;29.30;91.80;;;;;;5007276;28;20423;-96
2023/07/14 06:38:02;;;;;;;11.00;5.38;;;29.40;91.60;;;;;;4981444;28;21112;-96
2023/07/14 06:40:57;;;;;;;11.57;4.97;;;29.60;91.80;;;;;;5009454;28;20416;-93
2023/07/14 06:43:32;;;;;;;7.05;5.10;;;29.70;92.10;;;;;;5004436;28;20424;-95
2023/07/14 06:46:05;;;;;;;6.75;4.68;;;29.70;91.70;;;;;;4995065;28;20525;-93
2023/07/14 06:48:39;;;;;;;7.50;4.90;;;29.80;91.90;;;;;;5007757;28;20407;-94
2023/07/14 06:51:07;;;;;;;9.70;5.00;;;29.90;92.00;;;;;;4993211;28;20419;-95
2023/07/14 06:53:45;;;;;;;9.02;4.95;;;30.00;92.10;;;;;;4998475;28;20425;-93
2023/07/14 06:56:15;;;;;;;7.03;4.87;;;30.10;91.90;;;;;;4994226;28;20823;-93
2023/07/14 06:58:54;;;;;;;7.88;4.85;;;30.30;91.70;;;;;;5010684;28;20427;-93
2023/07/14 07:01:21;;;;;;;10.40;4.90;;;30.30;92.10;;;;;;4990471;28;20430;-94
2023/07/14 07:03:49;;;;;;;7.55;4.85;;;30.30;92.00;;;;;;5003590;28;20471;-94
2023/07/14 07:06:28;;;;;;;6.45;4.63;;;30.40;92.20;;;;;;4991439;28;20862;-94
2023/07/14 07:08:58;;;;;;;7.23;4.93;;;30.60;92.60;;;;;;5006692;28;20445;-94
2023/07/14 07:11:37;;;;;;;9.32;4.80;;;30.60;92.70;;;;;;5008614;28;20499;-91
2023/07/14 07:14:05;;;;;;;6.53;4.68;;;30.80;91.50;;;;;;5023759;28;20430;-94
2023/07/14 07:16:38;;;;;;;8.90;4.88;;;30.90;91.30;;;;;;5005607;28;20917;-93
2023/07/14 07:19:04;;;;;;;8.97;4.73;;;30.90;91.20;;;;;;4981258;28;20790;-92
2023/07/14 07:21:31;;;;;;;7.55;4.78;;;31.00;91.50;;;;;;5005377;28;20410;-92
2023/07/14 07:23:57;;;;;;;8.68;4.55;;;31.10;91.40;;;;;;4973996;28;20418;-95
2023/07/14 07:26:28;;;;;;;10.80;4.75;;;31.20;91.80;;;;;;4999245;28;20441;-92
2023/07/14 07:29:14;;;;;;;7.70;4.65;;;31.30;90.90;;;;;;5010690;28;20721;-95
2023/07/14 07:31:45;;;;;;;6.60;4.63;;;31.40;91.10;;;;;;5006340;28;20428;-94
2023/07/14 07:34:16;;;;;;;6.68;4.60;;;31.50;91.90;;;;;;5016463;28;20497;-93
2023/07/14 07:36:47;;;;;;;8.38;4.47;;;31.60;92.20;;;;;;5004135;28;21005;-94
2023/07/14 07:39:21;;;;;;;7.32;4.88;;;31.80;92.10;;;;;;4976239;28;20423;-95
2023/07/14 07:41:48;;;;;;;6.32;4.68;;;31.90;92.00;;;;;;5004704;28;20416;-92
2023/07/14 07:44:21;;;;;;;6.43;4.50;;;31.90;92.20;;;;;;4991063;28;20505;-95
2023/07/14 07:46:59;;;;;;;7.63;4.95;;;31.90;91.70;;;;;;5008869;28;20410;-94
2023/07/14 07:49:50;;;;;;;7.70;4.75;;;32.10;92.20;;;;;;4928937;28;20860;-94
2023/07/14 07:52:20;;;;;;;4.95;4.40;;;32.20;92.20;;;;;;4918053;28;20420;-92
2023/07/14 07:54:51;;;;;;;5.97;5.13;;;32.30;92.60;;;;;;4949107;28;20518;-92
2023/07/14 07:57:28;;;;;;;7.75;4.85;;;32.40;91.80;;;;;;4898608;28;20431;-93
2023/07/14 07:59:59;;;;;;;6.85;4.63;;;32.40;92.10;;;;;;4929563;28;20516;-91
2023/07/14 08:02:43;;;;;;;5.35;4.70;;;32.40;92.10;;;;;;4929497;29;20428;-93
2023/07/14 08:05:24;;;;;;;8.50;4.65;;;32.60;92.40;;;;;;4928718;29;20472;-95
2023/07/14 08:08:00;;;;;;;7.47;4.70;;;32.70;92.30;;;;;;4927220;28;20514;-93
2023/07/14 08:10:31;;;;;;;9.77;4.85;;;32.80;92.50;;;;;;4941192;28;20436;-94
2023/07/14 08:13:00;;;;;;;7.28;4.63;;;32.90;92.60;;;;;;4924435;28;20759;-91
2023/07/14 08:15:33;;;;;;;9.00;5.00;;;33.10;92.70;;;;;;4910232;28;20436;-90
2023/07/14 08:18:02;;;;;;;9.02;4.93;;;33.20;93.00;;;;;;4925395;28;20452;-91
2023/07/14 08:20:33;;;;;;;7.63;4.70;;;33.30;92.60;;;;;;4961715;28;20492;-93
2023/07/14 08:23:20;;;;;;;10.20;4.85;;;33.40;92.70;;;;;;4993115;28;20875;-94
2023/07/14 08:26:12;;;;;;;7.88;4.63;;;33.50;92.40;;;;;;4990439;28;20420;-93
2023/07/14 08:28:53;;;;;;;9.00;4.97;;;33.50;93.00;;;;;;4988691;28;20411;-95
2023/07/14 08:31:34;;;;;;;9.07;4.78;;;33.60;93.40;;;;;;5009632;28;20464;-93
2023/07/14 08:34:04;;;;;;;9.68;5.03;;;33.60;93.50;;;;;;5012047;28;20938;-94
2023/07/14 08:36:32;;;;;;;8.77;5.25;;;33.90;93.20;;;;;;4990829;28;20423;-91
2023/07/14 08:38:58;;;;;;;9.80;4.97;;;33.80;93.20;;;;;;4989040;28;20434;-91
2023/07/14 08:41:46;;;;;;;10.82;5.15;;;33.80;93.30;;;;;;4994028;28;23058;-91
2023/07/14 08:45:07;;;;;;;10.13;4.80;;;33.90;93.50;;;;;;5003319;28;20414;-91
2023/07/14 08:48:15;;;;;;;8.32;5.03;;;34.10;93.60;;;;;;5017460;28;20403;-92
2023/07/14 08:50:49;;;;;;;9.98;4.90;;;34.20;93.60;;;;;;4966784;28;20633;-92
2023/07/14 08:53:31;;;;;;;6.93;4.90;;;34.10;93.60;;;;;;4982090;28;21130;-91
2023/07/14 08:56:08;;;;;;;8.20;5.30;;;34.20;93.70;;;;;;4954783;28;21245;-96
2023/07/14 08:58:55;;;;;;;9.93;5.00;;;34.40;93.60;;;;;;4963683;28;20418;-94
2023/07/14 09:01:46;;;;;;;8.35;5.20;;;34.50;94.10;;;;;;4965509;28;20716;-93
2023/07/14 09:04:27;;;;;;;9.35;4.97;;;34.40;94.30;;;;;;4963990;28;20423;-94
2023/07/14 09:07:10;;;;;;;11.50;5.05;;;34.40;94.30;;;;;;4978910;28;20430;-94
2023/07/14 09:09:39;;;;;;;8.50;5.17;;;34.40;94.30;;;;;;4935716;28;20501;-92
2023/07/14 09:12:37;;;;;;;11.02;5.22;;;34.40;95.00;;;;;;4965558;28;20430;-93
2023/07/14 09:15:07;;;;;;;8.10;5.05;;;34.50;95.90;;;;;;4973278;28;20420;-89
2023/07/14 09:18:12;;;;;;;6.55;5.18;;;34.50;95.50;;;;;;4984968;28;20433;-93
2023/07/14 09:21:23;;;;;;;7.20;5.40;;;34.40;95.50;;;;;;4980793;28;20542;-93
2023/07/14 09:24:32;;;;;;;7.65;5.45;;;34.50;95.40;;;;;;5001366;28;20927;-96
2023/07/14 09:27:17;;;;;;;8.77;5.30;;;34.70;95.60;;;;;;5004617;28;20419;-93
2023/07/14 09:30:14;;;;;;;8.70;5.30;;;34.90;95.80;;;;;;5011098;28;20806;-96
2023/07/14 09:32:54;;;;;;;6.45;5.22;;;34.90;95.90;;;;;;5002049;28;20445;-94
2023/07/14 09:35:50;;;;;;;7.25;5.47;;;35.10;95.70;;;;;;4979062;28;20453;-92
2023/07/14 09:38:54;;;;;;;7.43;5.45;;;35.30;95.40;;;;;;4992049;28;20946;-93
2023/07/14 09:41:31;;;;;;;7.68;5.25;;;35.50;95.20;;;;;;4992232;28;20438;-91
2023/07/14 09:44:04;;;;;;;7.73;5.03;;;35.60;95.00;;;;;;4961574;28;20722;-90
2023/07/14 09:46:56;;;;;;;6.93;4.93;;;35.60;95.10;;;;;;5023084;28;20407;-92
2023/07/14 09:50:02;;;;;;;7.93;5.27;;;35.80;94.80;;;;;;5006653;28;20498;-88
2023/07/14 09:52:50;;;;;;;8.43;4.90;;;35.80;94.40;;;;;;4991038;28;20512;-95
2023/07/14 09:55:24;;;;;;;7.15;4.63;;;35.70;94.80;;;;;;4974504;28;20447;-93
2023/07/14 09:58:14;;;;;;;6.82;4.85;;;35.80;94.30;;;;;;5006682;28;20793;-93
2023/07/14 10:00:54;;;;;;;6.70;4.80;;;36.00;94.00;;;;;;4987084;28;20519;-94
2023/07/14 10:03:30;;;;;;;10.27;4.93;;;35.90;93.30;;;;;;5005453;28;20418;-92
2023/07/14 10:06:26;;;;;;;8.57;4.60;;;36.00;94.00;;;;;;4992043;28;20638;-93
2023/07/14 10:09:24;;;;;;;8.27;4.70;;;36.00;93.50;;;;;;4990330;28;20428;-92
2023/07/14 10:12:03;;;;;;;7.53;4.70;;;36.00;92.80;;;;;;5002806;28;20824;-93
2023/07/14 10:14:45;;;;;;;8.20;4.63;;;36.00;93.10;;;;;;5024354;28;22196;-93
2023/07/14 10:17:34;;;;;;;7.03;4.90;;;36.00;93.20;;;;;;4986887;28;20941;-95
2023/07/14 10:20:21;;;;;;;9.68;4.80;;;36.00;93.00;;;;;;5023115;28;20415;-95
2023/07/14 10:23:05;;;;;;;8.20;4.78;;;36.00;93.40;;;;;;4990405;28;20603;-94
2023/07/14 10:25:40;;;;;;;5.70;4.70;;;36.00;93.20;;;;;;5009146;28;20421;-95
2023/07/14 10:28:27;;;;;;;7.25;4.90;;;36.10;92.90;;;;;;4973717;28;20483;-93
2023/07/14 10:31:52;;;;;;;9.97;4.87;;;36.10;92.80;;;;;;4994060;28;20541;-92
2023/07/14 10:35:00;;;;;;;9.18;5.07;;;36.10;93.00;;;;;;4994485;28;20487;-93
2023/07/14 10:37:37;;;;;;;8.43;4.90;;;36.10;92.60;;;;;;5021311;28;20506;-89
2023/07/14 10:40:17;;;;;;;7.30;4.53;;;36.00;93.00;;;;;;4994430;28;21422;-90
2023/07/14 10:43:48;;;;;;;11.90;4.30;;;36.00;92.60;;;;;;4978513;28;20533;-95
2023/07/14 10:46:47;;;;;;;5.40;4.30;;;35.90;92.60;;;;;;4924533;29;20423;-95
2023/07/14 10:49:25;;;;;;;7.68;4.55;;;35.90;92.90;;;;;;4927074;29;21028;-95
2023/07/14 10:52:23;;;;;;;5.93;4.50;;;35.80;92.50;;;;;;5008812;28;20447;-91
2023/07/14 10:55:40;;;;;;;11.15;4.40;;;35.80;92.40;;;;;;5015307;28;20416;-93
2023/07/14 10:58:41;;;;;;;6.75;4.70;;;35.90;91.60;;;;;;4919917;29;20446;-92
2023/07/14 11:01:41;;;;;;;7.30;4.70;;;35.80;93.30;;;;;;4931034;28;20727;-93
2023/07/14 11:04:32;;;;;;;6.18;4.20;;;35.80;93.10;;;;;;5007182;28;20434;-94
2023/07/14 11:07:19;;;;;;;;;;;;;;;;;;;;;
2023/07/14 11:10:30;;;;;;;5.60;4.50;;;35.90;92.60;;;;;;5011289;28;20462;-96
2023/07/14 11:13:39;;;;;;;7.18;3.97;;;35.90;93.20;;;;;;5018656;28;20426;-92
2023/07/14 11:17:13;;;;;;;7.05;3.90;;;35.90;90.10;;;;;;4945621;28;20511;-95
2023/07/14 11:20:04;;;;;;;7.00;4.07;;;36.00;88.10;;;;;;4875882;29;20929;-91
2023/07/14 11:23:24;;;;;;;9.90;4.15;;;36.10;86.70;;;;;;4979521;28;21073;-93
2023/07/14 11:26:24;;;;;;;6.68;4.22;;;36.00;87.50;;;;;;4960505;28;20407;-90
2023/07/14 11:29:21;;;;;;;6.97;4.10;;;36.10;87.40;;;;;;4965443;28;20426;-88
2023/07/14 11:32:04;;;;;;;6.30;4.00;;;36.10;88.90;;;;;;4969013;28;20418;-90
2023/07/14 11:35:33;;;;;;;4.82;3.50;;;36.20;86.30;;;;;;4962483;28;20849;-88
2023/07/14 11:38:52;;;;;;;7.50;4.57;;;36.10;86.40;;;;;;4968328;28;20414;-90
2023/07/14 11:41:33;;;;;;;5.18;3.72;;;36.20;88.20;;;;;;4979869;28;20423;-92
2023/07/14 11:44:16;;;;;;;4.40;3.80;;;36.20;86.90;;;;;;4988831;28;20416;-90
2023/07/14 11:46:50;;;;;;;9.18;4.05;;;36.20;83.20;;;;;;4966099;28;20975;-89
2023/07/14 11:49:43;;;;;;;5.75;3.55;;;36.20;83.80;;;;;;4952233;28;20513;-94
2023/07/14 11:52:20;;;;;;;4.30;3.30;;;36.10;85.80;;;;;;4938384;28;20433;-92
2023/07/14 11:55:28;;;;;;;6.10;3.83;;;36.20;79.00;;;;;;4963136;28;20454;-87
2023/07/14 11:58:22;;;;;;;5.27;3.70;;;36.10;78.70;;;;;;4964685;28;20509;-92
2023/07/14 12:01:30;;;;;;;5.87;3.70;;;36.10;81.50;;;;;;4998782;28;21078;-90
2023/07/14 12:04:38;;;;;;;4.90;3.30;;;36.00;78.80;;;;;;4952032;28;20525;-92
2023/07/14 12:07:35;;;;;;;6.43;3.67;;;36.10;78.50;;;;;;4977463;28;20843;-91
2023/07/14 12:10:19;;;;;;;6.17;3.80;;;36.10;77.50;;;;;;4959750;28;20414;-91
2023/07/14 12:13:29;;;;;;;4.88;3.60;;;36.10;75.60;;;;;;4977326;28;20563;-90
2023/07/14 12:16:11;;;;;;;6.95;3.55;;;36.10;79.40;;;;;;4951957;28;20565;-95
2023/07/14 12:19:04;;;;;;;5.75;3.80;;;36.00;78.00;;;;;;4985160;28;20414;-92
2023/07/14 12:21:46;;;;;;;7.78;4.35;;;36.10;81.30;;;;;;4964886;28;20430;-91
2023/07/14 12:24:50;;;;;;;5.43;3.80;;;36.20;83.90;;;;;;4971959;28;20469;-89
2023/07/14 12:27:36;;;;;;;6.60;3.83;;;36.20;80.60;;;;;;4978781;28;20647;-90
2023/07/14 12:30:29;;;;;;;7.17;4.20;;;36.20;81.20;;;;;;4965948;28;20470;-87
2023/07/14 12:33:21;;;;;;;7.85;3.97;;;36.20;81.90;;;;;;4964451;28;20418;-91
2023/07/14 12:35:52;;;;;;;6.10;3.40;;;36.30;80.20;;;;;;4932911;28;20425;-89
2023/07/14 12:38:25;;;;;;;5.80;3.70;;;36.30;79.10;;;;;;4973203;28;20513;-90
2023/07/14 12:40:58;;;;;;;12.03;3.80;;;36.30;80.60;;;;;;4977708;28;20418;-93
2023/07/14 12:43:43;;;;;;;7.20;4.10;;;36.30;80.60;;;;;;5000175;28;20501;-92
2023/07/14 12:46:28;;;;;;;7.47;4.10;;;36.20;81.30;;;;;;4981466;28;20425;-94
2023/07/14 12:49:28;;;;;;;6.13;4.00;;;36.30;81.60;;;;;;5005432;28;21180;-91
2023/07/14 12:52:19;;;;;;;5.37;4.03;;;36.30;84.00;;;;;;4988820;28;20416;-90
2023/07/14 12:55:00;;;;;;;6.70;4.20;;;36.30;85.90;;;;;;4988349;28;20419;-93
2023/07/14 12:57:35;;;;;;;7.65;4.03;;;36.30;84.80;;;;;;4987112;28;20727;-92
2023/07/14 13:00:39;;;;;;;6.40;4.30;;;36.30;85.80;;;;;;4985188;28;20403;-92
2023/07/14 13:03:12;;;;;;;6.22;4.00;;;36.20;85.60;;;;;;4998999;28;20417;-87
2023/07/14 13:05:53;;;;;;;8.00;4.55;;;36.10;85.80;;;;;;4991597;28;20422;-90
2023/07/14 13:08:29;;;;;;;12.65;4.22;;;36.10;86.90;;;;;;4987168;28;20483;-90
2023/07/14 13:11:05;;;;;;;5.45;4.03;;;36.10;86.60;;;;;;5006464;28;20435;-91
2023/07/14 13:13:57;;;;;;;10.57;4.35;;;36.10;86.60;;;;;;5009346;28;20412;-90
2023/07/14 13:16:44;;;;;;;8.73;4.43;;;36.10;86.60;;;;;;4989957;28;20506;-89
2023/07/14 13:19:41;;;;;;;4.97;3.85;;;35.90;87.70;;;;;;5003877;28;20494;-91
2023/07/14 13:22:48;;;;;;;4.80;4.18;;;35.90;86.70;;;;;;4987785;28;20418;-92
2023/07/14 13:25:20;;;;;;;5.95;4.03;;;35.90;87.70;;;;;;4981082;28;20427;-93
2023/07/14 13:27:51;;;;;;;8.23;4.00;;;35.90;87.40;;;;;;5025409;28;20414;-91
2023/07/14 13:30:34;;;;;;;9.07;4.03;;;35.90;88.30;;;;;;4993659;28;20399;-89
2023/07/14 13:33:15;;;;;;;6.18;4.10;;;35.80;86.80;;;;;;4997495;28;20850;-92
2023/07/14 13:36:25;;;;;;;6.45;3.95;;;35.80;87.20;;;;;;4986727;28;20420;-90
2023/07/14 13:38:55;;;;;;;6.85;4.18;;;35.80;87.40;;;;;;4970428;28;20484;-88
2023/07/14 13:41:32;;;;;;;7.28;4.38;;;35.80;88.60;;;;;;5014536;28;20426;-89
2023/07/14 13:44:56;;;;;;;7.65;4.18;;;35.90;88.90;;;;;;5006516;28;20419;-94
2023/07/14 13:47:48;;;;;;;7.18;4.40;;;35.80;87.30;;;;;;4997975;28;20403;-95